sensor_id;sensor_type;location;lat;lon;timestamp;P1;durP1;ratioP1;P2;durP2;ratioP2
20065;SDS011;10193;48.884;9.182;2023-03-24T00:01:41;1.77;;;1.67;;
20065;SDS011;10193;48.884;9.182;2023-03-24T00:04:08;1.92;;;1.73;;
20065;SDS011;10193;48.884;9.182;2023-03-24T00:06:36;1.88;;;1.77;;
20065;SDS011;10193;48.884;9.182;2023-03-24T00:09:03;1.90;;;1.80;;
20065;SDS011;10193;48.884;9.182;2023-03-24T00:11:30;1.75;;;1.65;;
20065;SDS011;10193;48.884;9.182;2023-03-24T00:13:59;1.73;;;1.55;;
20065;SDS011;10193;48.884;9.182;2023-03-24T00:16:26;1.70;;;1.60;;
20065;SDS011;10193;48.884;9.182;2023-03-24T00:18:54;1.85;;;1.73;;
20065;SDS011;10193;48.884;9.182;2023-03-24T00:21:21;2.17;;;1.63;;
20065;SDS011;10193;48.884;9.182;2023-03-24T00:23:51;1.90;;;1.70;;
20065;SDS011;10193;48.884;9.182;2023-03-24T00:26:19;1.80;;;1.70;;
20065;SDS011;10193;48.884;9.182;2023-03-24T00:28:49;2.85;;;1.65;;
20065;SDS011;10193;48.884;9.182;2023-03-24T00:31:16;3.13;;;1.90;;
20065;SDS011;10193;48.884;9.182;2023-03-24T00:33:44;2.05;;;1.55;;
20065;SDS011;10193;48.884;9.182;2023-03-24T00:36:14;1.60;;;1.50;;
20065;SDS011;10193;48.884;9.182;2023-03-24T00:38:43;1.50;;;1.40;;
20065;SDS011;10193;48.884;9.182;2023-03-24T00:41:12;1.77;;;1.67;;
20065;SDS011;10193;48.884;9.182;2023-03-24T00:43:41;1.60;;;1.50;;
20065;SDS011;10193;48.884;9.182;2023-03-24T00:46:09;1.70;;;1.52;;
20065;SDS011;10193;48.884;9.182;2023-03-24T00:48:38;1.85;;;1.73;;
20065;SDS011;10193;48.884;9.182;2023-03-24T00:51:06;1.80;;;1.65;;
20065;SDS011;10193;48.884;9.182;2023-03-24T00:53:35;1.67;;;1.40;;
20065;SDS011;10193;48.884;9.182;2023-03-24T00:56:07;1.75;;;1.65;;
20065;SDS011;10193;48.884;9.182;2023-03-24T00:58:37;1.70;;;1.60;;
20065;SDS011;10193;48.884;9.182;2023-03-24T01:01:04;1.88;;;1.77;;
20065;SDS011;10193;48.884;9.182;2023-03-24T01:03:31;1.58;;;1.48;;
20065;SDS011;10193;48.884;9.182;2023-03-24T01:05:59;1.70;;;1.60;;
20065;SDS011;10193;48.884;9.182;2023-03-24T01:08:27;1.60;;;1.50;;
20065;SDS011;10193;48.884;9.182;2023-03-24T01:10:53;1.63;;;1.52;;
20065;SDS011;10193;48.884;9.182;2023-03-24T01:13:22;1.80;;;1.63;;
20065;SDS011;10193;48.884;9.182;2023-03-24T01:15:52;1.52;;;1.42;;
20065;SDS011;10193;48.884;9.182;2023-03-24T01:18:20;1.80;;;1.70;;
20065;SDS011;10193;48.884;9.182;2023-03-24T01:20:48;1.90;;;1.70;;
20065;SDS011;10193;48.884;9.182;2023-03-24T01:23:17;1.70;;;1.60;;
20065;SDS011;10193;48.884;9.182;2023-03-24T01:25:45;1.80;;;1.60;;
20065;SDS011;10193;48.884;9.182;2023-03-24T01:28:13;1.58;;;1.48;;
20065;SDS011;10193;48.884;9.182;2023-03-24T01:30:41;1.77;;;1.67;;
20065;SDS011;10193;48.884;9.182;2023-03-24T01:33:10;2.42;;;1.63;;
20065;SDS011;10193;48.884;9.182;2023-03-24T01:35:37;1.95;;;1.85;;
20065;SDS011;10193;48.884;9.182;2023-03-24T01:38:04;1.48;;;1.38;;
20065;SDS011;10193;48.884;9.182;2023-03-24T01:40:33;1.40;;;1.30;;
20065;SDS011;10193;48.884;9.182;2023-03-24T01:43:01;1.60;;;1.50;;
20065;SDS011;10193;48.884;9.182;2023-03-24T01:48:21;1.70;;;1.60;;
20065;SDS011;10193;48.884;9.182;2023-03-24T01:50:52;1.55;;;1.45;;
20065;SDS011;10193;48.884;9.182;2023-03-24T01:53:21;1.48;;;1.40;;
20065;SDS011;10193;48.884;9.182;2023-03-24T01:55:49;2.20;;;1.52;;
20065;SDS011;10193;48.884;9.182;2023-03-24T01:58:17;1.50;;;1.40;;
20065;SDS011;10193;48.884;9.182;2023-03-24T02:00:44;2.05;;;1.60;;
20065;SDS011;10193;48.884;9.182;2023-03-24T02:03:12;1.40;;;1.30;;
20065;SDS011;10193;48.884;9.182;2023-03-24T02:05:44;1.70;;;1.60;;
20065;SDS011;10193;48.884;9.182;2023-03-24T02:08:14;1.67;;;1.58;;
20065;SDS011;10193;48.884;9.182;2023-03-24T02:10:45;1.67;;;1.58;;
20065;SDS011;10193;48.884;9.182;2023-03-24T02:13:12;1.63;;;1.52;;
20065;SDS011;10193;48.884;9.182;2023-03-24T02:15:41;1.65;;;1.55;;
20065;SDS011;10193;48.884;9.182;2023-03-24T02:18:17;1.63;;;1.52;;
20065;SDS011;10193;48.884;9.182;2023-03-24T02:24:15;1.55;;;1.45;;
20065;SDS011;10193;48.884;9.182;2023-03-24T02:27:04;1.40;;;1.30;;
20065;SDS011;10193;48.884;9.182;2023-03-24T02:30:02;1.60;;;1.50;;
20065;SDS011;10193;48.884;9.182;2023-03-24T02:36:05;1.25;;;1.13;;
20065;SDS011;10193;48.884;9.182;2023-03-24T02:38:54;1.60;;;1.50;;
20065;SDS011;10193;48.884;9.182;2023-03-24T02:41:44;1.40;;;1.27;;
20065;SDS011;10193;48.884;9.182;2023-03-24T02:44:17;1.52;;;1.42;;
20065;SDS011;10193;48.884;9.182;2023-03-24T02:46:48;1.60;;;1.50;;
20065;SDS011;10193;48.884;9.182;2023-03-24T02:49:20;1.58;;;1.40;;
20065;SDS011;10193;48.884;9.182;2023-03-24T02:51:56;2.15;;;1.30;;
20065;SDS011;10193;48.884;9.182;2023-03-24T02:54:32;1.63;;;1.52;;
20065;SDS011;10193;48.884;9.182;2023-03-24T02:57:06;1.50;;;1.40;;
20065;SDS011;10193;48.884;9.182;2023-03-24T02:59:35;1.30;;;1.20;;
20065;SDS011;10193;48.884;9.182;2023-03-24T03:02:08;1.75;;;1.60;;
20065;SDS011;10193;48.884;9.182;2023-03-24T03:04:40;1.40;;;1.30;;
20065;SDS011;10193;48.884;9.182;2023-03-24T03:07:14;2.03;;;1.40;;
20065;SDS011;10193;48.884;9.182;2023-03-24T03:09:48;1.13;;;1.13;;
20065;SDS011;10193;48.884;9.182;2023-03-24T03:12:20;1.60;;;1.30;;
20065;SDS011;10193;48.884;9.182;2023-03-24T03:14:51;1.38;;;1.27;;
20065;SDS011;10193;48.884;9.182;2023-03-24T03:17:23;1.60;;;1.40;;
20065;SDS011;10193;48.884;9.182;2023-03-24T03:19:55;1.50;;;1.40;;
20065;SDS011;10193;48.884;9.182;2023-03-24T03:22:27;1.40;;;1.30;;
20065;SDS011;10193;48.884;9.182;2023-03-24T03:25:02;1.42;;;1.33;;
20065;SDS011;10193;48.884;9.182;2023-03-24T03:27:30;1.25;;;1.20;;
20065;SDS011;10193;48.884;9.182;2023-03-24T03:30:04;1.20;;;1.20;;
20065;SDS011;10193;48.884;9.182;2023-03-24T03:32:34;1.40;;;1.30;;
20065;SDS011;10193;48.884;9.182;2023-03-24T03:35:06;1.08;;;1.00;;
20065;SDS011;10193;48.884;9.182;2023-03-24T03:37:39;1.50;;;1.20;;
20065;SDS011;10193;48.884;9.182;2023-03-24T03:40:15;1.20;;;1.10;;
20065;SDS011;10193;48.884;9.182;2023-03-24T03:42:47;1.10;;;1.00;;
20065;SDS011;10193;48.884;9.182;2023-03-24T03:45:15;1.23;;;1.13;;
20065;SDS011;10193;48.884;9.182;2023-03-24T03:47:42;2.78;;;1.10;;
20065;SDS011;10193;48.884;9.182;2023-03-24T03:50:09;1.23;;;1.20;;
20065;SDS011;10193;48.884;9.182;2023-03-24T03:52:36;1.35;;;1.25;;
20065;SDS011;10193;48.884;9.182;2023-03-24T03:55:05;1.63;;;1.10;;
20065;SDS011;10193;48.884;9.182;2023-03-24T03:57:35;1.30;;;1.20;;
20065;SDS011;10193;48.884;9.182;2023-03-24T04:00:03;1.58;;;1.48;;
20065;SDS011;10193;48.884;9.182;2023-03-24T04:02:37;1.40;;;1.25;;
20065;SDS011;10193;48.884;9.182;2023-03-24T04:05:25;1.65;;;1.50;;
20065;SDS011;10193;48.884;9.182;2023-03-24T04:10:55;1.15;;;1.15;;
20065;SDS011;10193;48.884;9.182;2023-03-24T04:13:36;1.67;;;1.25;;
20065;SDS011;10193;48.884;9.182;2023-03-24T04:16:13;1.35;;;1.30;;
20065;SDS011;10193;48.884;9.182;2023-03-24T04:18:53;1.20;;;1.13;;
20065;SDS011;10193;48.884;9.182;2023-03-24T04:21:36;1.95;;;1.30;;
20065;SDS011;10193;48.884;9.182;2023-03-24T04:24:21;1.40;;;1.30;;
20065;SDS011;10193;48.884;9.182;2023-03-24T04:27:00;1.67;;;1.30;;
20065;SDS011;10193;48.884;9.182;2023-03-24T04:29:35;1.40;;;1.30;;
20065;SDS011;10193;48.884;9.182;2023-03-24T04:32:11;1.50;;;1.40;;
20065;SDS011;10193;48.884;9.182;2023-03-24T04:34:44;1.10;;;1.10;;
20065;SDS011;10193;48.884;9.182;2023-03-24T04:37:15;1.40;;;1.30;;
20065;SDS011;10193;48.884;9.182;2023-03-24T04:39:45;1.25;;;1.15;;
20065;SDS011;10193;48.884;9.182;2023-03-24T04:42:14;1.30;;;1.23;;
20065;SDS011;10193;48.884;9.182;2023-03-24T04:44:46;2.35;;;1.50;;
20065;SDS011;10193;48.884;9.182;2023-03-24T04:47:16;1.60;;;1.50;;
20065;SDS011;10193;48.884;9.182;2023-03-24T04:49:46;2.05;;;1.42;;
20065;SDS011;10193;48.884;9.182;2023-03-24T04:52:13;1.25;;;1.20;;
20065;SDS011;10193;48.884;9.182;2023-03-24T04:54:40;1.35;;;1.25;;
20065;SDS011;10193;48.884;9.182;2023-03-24T04:57:06;1.08;;;1.08;;
20065;SDS011;10193;48.884;9.182;2023-03-24T04:59:33;1.52;;;1.42;;
20065;SDS011;10193;48.884;9.182;2023-03-24T05:02:01;2.63;;;1.40;;
20065;SDS011;10193;48.884;9.182;2023-03-24T05:04:28;1.05;;;1.05;;
20065;SDS011;10193;48.884;9.182;2023-03-24T05:06:55;1.40;;;1.30;;
20065;SDS011;10193;48.884;9.182;2023-03-24T05:09:22;1.38;;;1.27;;
20065;SDS011;10193;48.884;9.182;2023-03-24T05:11:50;1.10;;;1.10;;
20065;SDS011;10193;48.884;9.182;2023-03-24T05:14:17;2.25;;;1.15;;
20065;SDS011;10193;48.884;9.182;2023-03-24T05:16:43;1.70;;;1.23;;
20065;SDS011;10193;48.884;9.182;2023-03-24T05:19:11;1.77;;;1.20;;
20065;SDS011;10193;48.884;9.182;2023-03-24T05:21:38;1.10;;;1.10;;
20065;SDS011;10193;48.884;9.182;2023-03-24T05:24:05;1.60;;;1.48;;
20065;SDS011;10193;48.884;9.182;2023-03-24T05:26:32;1.73;;;1.63;;
20065;SDS011;10193;48.884;9.182;2023-03-24T05:28:59;1.73;;;1.63;;
20065;SDS011;10193;48.884;9.182;2023-03-24T05:31:26;2.03;;;1.90;;
20065;SDS011;10193;48.884;9.182;2023-03-24T05:33:52;2.22;;;1.95;;
20065;SDS011;10193;48.884;9.182;2023-03-24T05:36:21;2.80;;;1.63;;
20065;SDS011;10193;48.884;9.182;2023-03-24T05:38:47;1.73;;;1.63;;
20065;SDS011;10193;48.884;9.182;2023-03-24T05:41:14;1.70;;;1.60;;
20065;SDS011;10193;48.884;9.182;2023-03-24T05:43:41;1.58;;;1.48;;
20065;SDS011;10193;48.884;9.182;2023-03-24T05:46:07;1.48;;;1.38;;
20065;SDS011;10193;48.884;9.182;2023-03-24T05:48:34;1.65;;;1.50;;
20065;SDS011;10193;48.884;9.182;2023-03-24T05:51:00;1.67;;;1.58;;
20065;SDS011;10193;48.884;9.182;2023-03-24T05:53:28;1.58;;;1.48;;
20065;SDS011;10193;48.884;9.182;2023-03-24T05:55:56;1.58;;;1.48;;
20065;SDS011;10193;48.884;9.182;2023-03-24T05:58:23;1.67;;;1.58;;
20065;SDS011;10193;48.884;9.182;2023-03-24T06:00:49;1.70;;;1.60;;
20065;SDS011;10193;48.884;9.182;2023-03-24T06:03:18;1.70;;;1.60;;
20065;SDS011;10193;48.884;9.182;2023-03-24T06:05:45;1.70;;;1.60;;
20065;SDS011;10193;48.884;9.182;2023-03-24T06:08:12;1.65;;;1.55;;
20065;SDS011;10193;48.884;9.182;2023-03-24T06:10:40;1.98;;;1.88;;
20065;SDS011;10193;48.884;9.182;2023-03-24T06:13:06;1.70;;;1.60;;
20065;SDS011;10193;48.884;9.182;2023-03-24T06:15:33;1.85;;;1.75;;
20065;SDS011;10193;48.884;9.182;2023-03-24T06:18:00;2.17;;;1.98;;
20065;SDS011;10193;48.884;9.182;2023-03-24T06:20:29;2.42;;;1.90;;
20065;SDS011;10193;48.884;9.182;2023-03-24T06:22:55;1.80;;;1.70;;
20065;SDS011;10193;48.884;9.182;2023-03-24T06:25:23;2.00;;;1.90;;
20065;SDS011;10193;48.884;9.182;2023-03-24T06:27:53;2.63;;;2.20;;
20065;SDS011;10193;48.884;9.182;2023-03-24T06:30:19;2.95;;;1.90;;
20065;SDS011;10193;48.884;9.182;2023-03-24T06:32:46;1.75;;;1.65;;
20065;SDS011;10193;48.884;9.182;2023-03-24T06:35:14;2.45;;;1.80;;
20065;SDS011;10193;48.884;9.182;2023-03-24T06:37:41;2.10;;;1.80;;
20065;SDS011;10193;48.884;9.182;2023-03-24T06:40:09;1.92;;;1.83;;
20065;SDS011;10193;48.884;9.182;2023-03-24T06:42:39;2.25;;;2.08;;
20065;SDS011;10193;48.884;9.182;2023-03-24T06:45:08;1.95;;;1.85;;
20065;SDS011;10193;48.884;9.182;2023-03-24T06:47:35;1.88;;;1.77;;
20065;SDS011;10193;48.884;9.182;2023-03-24T06:50:02;2.45;;;2.10;;
20065;SDS011;10193;48.884;9.182;2023-03-24T06:52:30;2.13;;;1.92;;
20065;SDS011;10193;48.884;9.182;2023-03-24T06:54:56;1.83;;;1.73;;
20065;SDS011;10193;48.884;9.182;2023-03-24T06:57:23;2.38;;;1.73;;
20065;SDS011;10193;48.884;9.182;2023-03-24T06:59:50;2.45;;;2.00;;
20065;SDS011;10193;48.884;9.182;2023-03-24T07:02:18;2.10;;;1.90;;
20065;SDS011;10193;48.884;9.182;2023-03-24T07:04:45;2.10;;;1.92;;
20065;SDS011;10193;48.884;9.182;2023-03-24T07:07:12;1.73;;;1.63;;
20065;SDS011;10193;48.884;9.182;2023-03-24T07:09:38;2.10;;;1.80;;
20065;SDS011;10193;48.884;9.182;2023-03-24T07:12:05;1.80;;;1.70;;
20065;SDS011;10193;48.884;9.182;2023-03-24T07:14:32;1.77;;;1.67;;
20065;SDS011;10193;48.884;9.182;2023-03-24T07:16:59;1.90;;;1.80;;
20065;SDS011;10193;48.884;9.182;2023-03-24T07:19:27;2.15;;;1.98;;
20065;SDS011;10193;48.884;9.182;2023-03-24T07:21:54;1.70;;;1.60;;
20065;SDS011;10193;48.884;9.182;2023-03-24T07:24:20;1.50;;;1.42;;
20065;SDS011;10193;48.884;9.182;2023-03-24T07:26:47;2.00;;;1.90;;
20065;SDS011;10193;48.884;9.182;2023-03-24T07:29:14;1.70;;;1.60;;
20065;SDS011;10193;48.884;9.182;2023-03-24T07:31:41;2.00;;;1.63;;
20065;SDS011;10193;48.884;9.182;2023-03-24T07:34:08;1.70;;;1.60;;
20065;SDS011;10193;48.884;9.182;2023-03-24T07:36:36;1.88;;;1.73;;
20065;SDS011;10193;48.884;9.182;2023-03-24T07:39:03;1.60;;;1.45;;
20065;SDS011;10193;48.884;9.182;2023-03-24T07:41:30;1.70;;;1.60;;
20065;SDS011;10193;48.884;9.182;2023-03-24T07:43:57;1.50;;;1.40;;
20065;SDS011;10193;48.884;9.182;2023-03-24T07:46:24;1.73;;;1.40;;
20065;SDS011;10193;48.884;9.182;2023-03-24T07:48:50;1.58;;;1.48;;
20065;SDS011;10193;48.884;9.182;2023-03-24T07:51:17;1.60;;;1.50;;
20065;SDS011;10193;48.884;9.182;2023-03-24T07:53:45;1.70;;;1.60;;
20065;SDS011;10193;48.884;9.182;2023-03-24T07:56:12;2.17;;;1.50;;
20065;SDS011;10193;48.884;9.182;2023-03-24T07:58:38;1.85;;;1.55;;
20065;SDS011;10193;48.884;9.182;2023-03-24T08:01:05;1.63;;;1.52;;
20065;SDS011;10193;48.884;9.182;2023-03-24T08:03:33;1.55;;;1.45;;
20065;SDS011;10193;48.884;9.182;2023-03-24T08:06:00;1.58;;;1.42;;
20065;SDS011;10193;48.884;9.182;2023-03-24T08:08:27;1.20;;;1.20;;
20065;SDS011;10193;48.884;9.182;2023-03-24T08:10:55;1.42;;;1.33;;
20065;SDS011;10193;48.884;9.182;2023-03-24T08:13:22;1.40;;;1.30;;
20065;SDS011;10193;48.884;9.182;2023-03-24T08:15:48;1.38;;;1.10;;
20065;SDS011;10193;48.884;9.182;2023-03-24T08:18:17;1.38;;;1.27;;
20065;SDS011;10193;48.884;9.182;2023-03-24T08:20:44;1.40;;;1.30;;
20065;SDS011;10193;48.884;9.182;2023-03-24T08:23:11;0.98;;;0.98;;
20065;SDS011;10193;48.884;9.182;2023-03-24T08:25:38;1.33;;;1.10;;
20065;SDS011;10193;48.884;9.182;2023-03-24T08:28:06;1.38;;;1.30;;
20065;SDS011;10193;48.884;9.182;2023-03-24T08:30:33;1.27;;;1.20;;
20065;SDS011;10193;48.884;9.182;2023-03-24T08:33:00;1.70;;;1.60;;
20065;SDS011;10193;48.884;9.182;2023-03-24T08:35:28;1.60;;;1.50;;
20065;SDS011;10193;48.884;9.182;2023-03-24T08:38:02;1.50;;;1.40;;
20065;SDS011;10193;48.884;9.182;2023-03-24T08:40:30;1.30;;;1.20;;
20065;SDS011;10193;48.884;9.182;2023-03-24T08:42:59;1.40;;;1.30;;
20065;SDS011;10193;48.884;9.182;2023-03-24T08:45:29;1.65;;;1.45;;
20065;SDS011;10193;48.884;9.182;2023-03-24T08:47:58;1.55;;;1.45;;
20065;SDS011;10193;48.884;9.182;2023-03-24T08:50:27;1.67;;;1.58;;
20065;SDS011;10193;48.884;9.182;2023-03-24T08:52:56;1.33;;;1.25;;
20065;SDS011;10193;48.884;9.182;2023-03-24T08:55:23;1.95;;;1.73;;
20065;SDS011;10193;48.884;9.182;2023-03-24T08:57:50;1.98;;;1.60;;
20065;SDS011;10193;48.884;9.182;2023-03-24T09:00:18;1.40;;;1.35;;
20065;SDS011;10193;48.884;9.182;2023-03-24T09:02:47;1.55;;;1.45;;
20065;SDS011;10193;48.884;9.182;2023-03-24T09:05:15;1.67;;;1.50;;
20065;SDS011;10193;48.884;9.182;2023-03-24T09:07:43;2.25;;;1.50;;
20065;SDS011;10193;48.884;9.182;2023-03-24T09:10:10;2.40;;;1.70;;
20065;SDS011;10193;48.884;9.182;2023-03-24T09:12:37;1.95;;;1.40;;
20065;SDS011;10193;48.884;9.182;2023-03-24T09:15:05;1.35;;;1.33;;
20065;SDS011;10193;48.884;9.182;2023-03-24T09:17:33;1.45;;;1.30;;
20065;SDS011;10193;48.884;9.182;2023-03-24T09:20:02;1.50;;;1.40;;
20065;SDS011;10193;48.884;9.182;2023-03-24T09:22:32;2.03;;;1.27;;
20065;SDS011;10193;48.884;9.182;2023-03-24T09:24:59;1.75;;;1.10;;
20065;SDS011;10193;48.884;9.182;2023-03-24T09:27:25;1.80;;;1.70;;
20065;SDS011;10193;48.884;9.182;2023-03-24T09:29:52;1.00;;;1.00;;
20065;SDS011;10193;48.884;9.182;2023-03-24T09:32:18;1.30;;;1.20;;
20065;SDS011;10193;48.884;9.182;2023-03-24T09:34:46;1.13;;;1.13;;
20065;SDS011;10193;48.884;9.182;2023-03-24T09:37:14;1.05;;;1.00;;
20065;SDS011;10193;48.884;9.182;2023-03-24T09:39:41;1.40;;;1.30;;
20065;SDS011;10193;48.884;9.182;2023-03-24T09:42:09;1.13;;;1.13;;
20065;SDS011;10193;48.884;9.182;2023-03-24T09:44:43;1.50;;;1.40;;
20065;SDS011;10193;48.884;9.182;2023-03-24T09:47:24;1.00;;;1.00;;
20065;SDS011;10193;48.884;9.182;2023-03-24T09:49:54;1.10;;;1.10;;
20065;SDS011;10193;48.884;9.182;2023-03-24T09:52:28;0.98;;;0.98;;
20065;SDS011;10193;48.884;9.182;2023-03-24T09:54:59;1.38;;;1.33;;
20065;SDS011;10193;48.884;9.182;2023-03-24T09:57:27;1.27;;;1.25;;
20065;SDS011;10193;48.884;9.182;2023-03-24T10:00:02;1.25;;;1.15;;
20065;SDS011;10193;48.884;9.182;2023-03-24T10:02:41;1.90;;;0.93;;
20065;SDS011;10193;48.884;9.182;2023-03-24T10:05:11;1.05;;;1.05;;
20065;SDS011;10193;48.884;9.182;2023-03-24T10:07:47;1.00;;;1.00;;
20065;SDS011;10193;48.884;9.182;2023-03-24T10:10:23;0.95;;;0.95;;
20065;SDS011;10193;48.884;9.182;2023-03-24T10:12:56;1.00;;;1.00;;
20065;SDS011;10193;48.884;9.182;2023-03-24T10:15:29;1.00;;;1.00;;
20065;SDS011;10193;48.884;9.182;2023-03-24T10:18:04;1.02;;;1.02;;
20065;SDS011;10193;48.884;9.182;2023-03-24T10:20:46;1.45;;;1.35;;
20065;SDS011;10193;48.884;9.182;2023-03-24T10:23:21;1.10;;;1.10;;
20065;SDS011;10193;48.884;9.182;2023-03-24T10:25:55;1.00;;;1.00;;
20065;SDS011;10193;48.884;9.182;2023-03-24T10:28:30;0.80;;;0.80;;
20065;SDS011;10193;48.884;9.182;2023-03-24T10:31:02;0.95;;;0.90;;
20065;SDS011;10193;48.884;9.182;2023-03-24T10:33:34;0.90;;;0.90;;
20065;SDS011;10193;48.884;9.182;2023-03-24T10:36:05;1.00;;;1.00;;
20065;SDS011;10193;48.884;9.182;2023-03-24T10:38:37;1.30;;;1.10;;
20065;SDS011;10193;48.884;9.182;2023-03-24T10:41:04;0.85;;;0.85;;
20065;SDS011;10193;48.884;9.182;2023-03-24T10:43:31;1.40;;;1.02;;
20065;SDS011;10193;48.884;9.182;2023-03-24T10:45:58;1.10;;;0.98;;
20065;SDS011;10193;48.884;9.182;2023-03-24T10:48:33;3.22;;;1.05;;
20065;SDS011;10193;48.884;9.182;2023-03-24T10:51:06;1.05;;;1.02;;
20065;SDS011;10193;48.884;9.182;2023-03-24T10:53:33;4.30;;;1.15;;
20065;SDS011;10193;48.884;9.182;2023-03-24T10:56:01;1.35;;;1.08;;
20065;SDS011;10193;48.884;9.182;2023-03-24T10:58:28;0.75;;;0.75;;
20065;SDS011;10193;48.884;9.182;2023-03-24T11:01:01;0.70;;;0.70;;
20065;SDS011;10193;48.884;9.182;2023-03-24T11:03:28;1.00;;;0.90;;
20065;SDS011;10193;48.884;9.182;2023-03-24T11:05:57;1.75;;;0.70;;
20065;SDS011;10193;48.884;9.182;2023-03-24T11:08:26;0.88;;;0.88;;
20065;SDS011;10193;48.884;9.182;2023-03-24T11:10:57;0.90;;;0.90;;
20065;SDS011;10193;48.884;9.182;2023-03-24T11:13:29;0.80;;;0.80;;
20065;SDS011;10193;48.884;9.182;2023-03-24T11:16:05;0.98;;;0.85;;
20065;SDS011;10193;48.884;9.182;2023-03-24T11:18:36;0.85;;;0.85;;
20065;SDS011;10193;48.884;9.182;2023-03-24T11:21:04;0.82;;;0.70;;
20065;SDS011;10193;48.884;9.182;2023-03-24T11:23:32;0.90;;;0.90;;
20065;SDS011;10193;48.884;9.182;2023-03-24T11:26:05;0.82;;;0.70;;
20065;SDS011;10193;48.884;9.182;2023-03-24T11:28:36;0.98;;;0.63;;
20065;SDS011;10193;48.884;9.182;2023-03-24T11:31:06;0.65;;;0.65;;
20065;SDS011;10193;48.884;9.182;2023-03-24T11:33:35;2.70;;;0.60;;
20065;SDS011;10193;48.884;9.182;2023-03-24T11:39:10;0.90;;;0.90;;
20065;SDS011;10193;48.884;9.182;2023-03-24T11:41:40;0.70;;;0.70;;
20065;SDS011;10193;48.884;9.182;2023-03-24T11:44:15;0.82;;;0.77;;
20065;SDS011;10193;48.884;9.182;2023-03-24T11:46:44;0.95;;;0.93;;
20065;SDS011;10193;48.884;9.182;2023-03-24T11:49:15;0.60;;;0.60;;
20065;SDS011;10193;48.884;9.182;2023-03-24T11:51:45;0.93;;;0.80;;
20065;SDS011;10193;48.884;9.182;2023-03-24T11:54:15;0.70;;;0.70;;
20065;SDS011;10193;48.884;9.182;2023-03-24T11:56:45;0.70;;;0.70;;
20065;SDS011;10193;48.884;9.182;2023-03-24T11:59:17;0.68;;;0.68;;
20065;SDS011;10193;48.884;9.182;2023-03-24T12:01:53;0.60;;;0.60;;
20065;SDS011;10193;48.884;9.182;2023-03-24T12:04:27;0.73;;;0.73;;
20065;SDS011;10193;48.884;9.182;2023-03-24T12:07:05;0.80;;;0.80;;
20065;SDS011;10193;48.884;9.182;2023-03-24T12:09:50;0.57;;;0.57;;
20065;SDS011;10193;48.884;9.182;2023-03-24T12:12:25;0.50;;;0.50;;
20065;SDS011;10193;48.884;9.182;2023-03-24T12:15:18;0.50;;;0.50;;
20065;SDS011;10193;48.884;9.182;2023-03-24T12:17:57;0.50;;;0.50;;
20065;SDS011;10193;48.884;9.182;2023-03-24T12:20:33;0.50;;;0.50;;
20065;SDS011;10193;48.884;9.182;2023-03-24T12:23:06;0.93;;;0.70;;
20065;SDS011;10193;48.884;9.182;2023-03-24T12:25:38;0.80;;;0.80;;
20065;SDS011;10193;48.884;9.182;2023-03-24T12:28:16;0.60;;;0.60;;
20065;SDS011;10193;48.884;9.182;2023-03-24T12:30:54;0.73;;;0.73;;
20065;SDS011;10193;48.884;9.182;2023-03-24T12:33:29;0.63;;;0.63;;
20065;SDS011;10193;48.884;9.182;2023-03-24T12:36:09;1.85;;;0.70;;
20065;SDS011;10193;48.884;9.182;2023-03-24T12:38:46;0.65;;;0.63;;
20065;SDS011;10193;48.884;9.182;2023-03-24T12:41:34;0.70;;;0.70;;
20065;SDS011;10193;48.884;9.182;2023-03-24T12:44:16;0.60;;;0.60;;
20065;SDS011;10193;48.884;9.182;2023-03-24T12:47:01;0.68;;;0.50;;
20065;SDS011;10193;48.884;9.182;2023-03-24T12:49:50;0.45;;;0.45;;
20065;SDS011;10193;48.884;9.182;2023-03-24T12:52:33;0.52;;;0.50;;
20065;SDS011;10193;48.884;9.182;2023-03-24T12:55:29;0.57;;;0.57;;
20065;SDS011;10193;48.884;9.182;2023-03-24T12:58:02;0.40;;;0.40;;
20065;SDS011;10193;48.884;9.182;2023-03-24T13:00:35;0.52;;;0.52;;
20065;SDS011;10193;48.884;9.182;2023-03-24T13:03:08;0.47;;;0.43;;
20065;SDS011;10193;48.884;9.182;2023-03-24T13:05:39;0.85;;;0.43;;
20065;SDS011;10193;48.884;9.182;2023-03-24T13:08:11;0.35;;;0.35;;
20065;SDS011;10193;48.884;9.182;2023-03-24T13:10:43;0.60;;;0.40;;
20065;SDS011;10193;48.884;9.182;2023-03-24T13:13:12;0.40;;;0.40;;
20065;SDS011;10193;48.884;9.182;2023-03-24T13:15:45;0.43;;;0.40;;
20065;SDS011;10193;48.884;9.182;2023-03-24T13:18:19;1.08;;;0.60;;
20065;SDS011;10193;48.884;9.182;2023-03-24T13:20:53;0.60;;;0.55;;
20065;SDS011;10193;48.884;9.182;2023-03-24T13:23:30;1.30;;;0.65;;
20065;SDS011;10193;48.884;9.182;2023-03-24T13:26:08;0.63;;;0.63;;
20065;SDS011;10193;48.884;9.182;2023-03-24T13:28:43;0.98;;;0.70;;
20065;SDS011;10193;48.884;9.182;2023-03-24T13:31:15;1.38;;;0.70;;
20065;SDS011;10193;48.884;9.182;2023-03-24T13:33:47;0.98;;;0.73;;
20065;SDS011;10193;48.884;9.182;2023-03-24T13:36:21;0.73;;;0.70;;
20065;SDS011;10193;48.884;9.182;2023-03-24T13:38:55;1.42;;;0.90;;
20065;SDS011;10193;48.884;9.182;2023-03-24T13:41:25;0.63;;;0.63;;
20065;SDS011;10193;48.884;9.182;2023-03-24T13:43:57;0.70;;;0.63;;
20065;SDS011;10193;48.884;9.182;2023-03-24T13:46:26;1.10;;;0.73;;
20065;SDS011;10193;48.884;9.182;2023-03-24T13:48:55;1.25;;;0.80;;
20065;SDS011;10193;48.884;9.182;2023-03-24T13:51:24;0.82;;;0.60;;
20065;SDS011;10193;48.884;9.182;2023-03-24T13:53:54;0.60;;;0.60;;
20065;SDS011;10193;48.884;9.182;2023-03-24T13:56:24;1.58;;;0.70;;
20065;SDS011;10193;48.884;9.182;2023-03-24T13:59:07;0.93;;;0.68;;
20065;SDS011;10193;48.884;9.182;2023-03-24T14:04:45;0.65;;;0.65;;
20065;SDS011;10193;48.884;9.182;2023-03-24T14:07:28;1.00;;;0.65;;
20065;SDS011;10193;48.884;9.182;2023-03-24T14:09:58;1.42;;;0.93;;
20065;SDS011;10193;48.884;9.182;2023-03-24T14:12:26;0.82;;;0.80;;
20065;SDS011;10193;48.884;9.182;2023-03-24T14:17:45;0.65;;;0.60;;
20065;SDS011;10193;48.884;9.182;2023-03-24T14:20:26;1.65;;;0.85;;
20065;SDS011;10193;48.884;9.182;2023-03-24T14:22:57;0.95;;;0.70;;
20065;SDS011;10193;48.884;9.182;2023-03-24T14:25:25;1.40;;;0.77;;
20065;SDS011;10193;48.884;9.182;2023-03-24T14:27:54;0.50;;;0.50;;
20065;SDS011;10193;48.884;9.182;2023-03-24T14:30:34;0.40;;;0.40;;
20065;SDS011;10193;48.884;9.182;2023-03-24T14:33:04;1.55;;;0.70;;
20065;SDS011;10193;48.884;9.182;2023-03-24T14:35:48;1.58;;;0.60;;
20065;SDS011;10193;48.884;9.182;2023-03-24T14:38:22;0.88;;;0.75;;
20065;SDS011;10193;48.884;9.182;2023-03-24T14:40:51;1.02;;;0.88;;
20065;SDS011;10193;48.884;9.182;2023-03-24T14:43:23;1.77;;;0.70;;
20065;SDS011;10193;48.884;9.182;2023-03-24T14:45:55;1.05;;;0.85;;
20065;SDS011;10193;48.884;9.182;2023-03-24T14:48:36;1.63;;;0.90;;
20065;SDS011;10193;48.884;9.182;2023-03-24T14:54:01;1.17;;;0.90;;
20065;SDS011;10193;48.884;9.182;2023-03-24T14:56:32;2.05;;;0.70;;
20065;SDS011;10193;48.884;9.182;2023-03-24T14:59:04;1.00;;;0.70;;
20065;SDS011;10193;48.884;9.182;2023-03-24T15:01:36;0.50;;;0.50;;
20065;SDS011;10193;48.884;9.182;2023-03-24T15:04:04;0.88;;;0.60;;
20065;SDS011;10193;48.884;9.182;2023-03-24T15:06:33;0.68;;;0.68;;
20065;SDS011;10193;48.884;9.182;2023-03-24T15:09:10;0.70;;;0.70;;
20065;SDS011;10193;48.884;9.182;2023-03-24T15:11:39;0.52;;;0.50;;
20065;SDS011;10193;48.884;9.182;2023-03-24T15:14:12;1.02;;;0.50;;
20065;SDS011;10193;48.884;9.182;2023-03-24T15:16:49;0.45;;;0.45;;
20065;SDS011;10193;48.884;9.182;2023-03-24T15:19:19;0.40;;;0.40;;
20065;SDS011;10193;48.884;9.182;2023-03-24T15:21:55;1.20;;;0.50;;
20065;SDS011;10193;48.884;9.182;2023-03-24T15:24:25;0.65;;;0.57;;
20065;SDS011;10193;48.884;9.182;2023-03-24T15:26:55;1.38;;;0.50;;
20065;SDS011;10193;48.884;9.182;2023-03-24T15:29:40;1.15;;;0.50;;
20065;SDS011;10193;48.884;9.182;2023-03-24T15:32:10;0.50;;;0.50;;
20065;SDS011;10193;48.884;9.182;2023-03-24T15:34:44;1.02;;;0.50;;